createdAt,value
2022-10-16T00:00:32.653Z,0.00
2022-10-16T00:01:32.659Z,0.00
2022-10-16T00:02:32.811Z,0.00
2022-10-16T00:03:32.634Z,0.00
2022-10-16T00:04:32.611Z,0.00
2022-10-16T00:05:32.612Z,0.00
2022-10-16T00:06:32.586Z,0.00
2022-10-16T00:07:32.582Z,0.00
2022-10-16T00:08:32.580Z,0.00
2022-10-16T00:09:32.558Z,0.00
2022-10-16T00:10:32.571Z,0.00
2022-10-16T00:11:32.531Z,0.00
2022-10-16T00:12:32.526Z,0.00
2022-10-16T00:13:32.512Z,0.00
2022-10-16T00:14:32.496Z,0.00
2022-10-16T00:15:32.514Z,0.00
2022-10-16T00:16:32.508Z,0.00
2022-10-16T00:17:32.485Z,0.00
2022-10-16T00:18:32.456Z,0.00
2022-10-16T00:19:32.453Z,0.00
2022-10-16T00:20:32.434Z,0.00
2022-10-16T00:21:32.418Z,0.00
2022-10-16T00:22:32.424Z,0.00
2022-10-16T00:23:32.396Z,0.00
2022-10-16T00:24:32.382Z,0.00
2022-10-16T00:25:32.390Z,0.00
2022-10-16T00:26:32.380Z,0.00
2022-10-16T00:27:32.355Z,0.00
2022-10-16T00:28:32.432Z,0.00
2022-10-16T00:29:32.338Z,0.00
2022-10-16T00:30:32.325Z,0.00
2022-10-16T00:31:32.336Z,0.00
2022-10-16T00:32:32.321Z,0.00
2022-10-16T00:33:32.285Z,0.00
2022-10-16T00:34:32.277Z,0.00
2022-10-16T00:35:32.266Z,0.00
2022-10-16T00:36:32.271Z,0.00
2022-10-16T00:37:32.243Z,0.00
2022-10-16T00:38:32.248Z,0.00
2022-10-16T00:39:32.228Z,0.00
2022-10-16T00:40:32.214Z,0.00
2022-10-16T00:41:32.208Z,0.00
2022-10-16T00:42:32.189Z,0.00
2022-10-16T00:43:32.191Z,0.00
2022-10-16T00:44:32.159Z,0.00
2022-10-16T00:45:32.148Z,0.00
2022-10-16T00:46:32.154Z,0.00
2022-10-16T00:47:32.157Z,0.00
2022-10-16T00:48:32.125Z,0.00
2022-10-16T00:49:32.125Z,0.00
2022-10-16T00:50:32.098Z,0.00
2022-10-16T00:51:32.096Z,0.00
2022-10-16T00:52:32.074Z,0.00
2022-10-16T00:53:32.057Z,0.00
2022-10-16T00:54:32.072Z,0.00
2022-10-16T00:55:32.048Z,0.00
2022-10-16T00:56:32.024Z,0.00
2022-10-16T00:57:32.027Z,0.00
2022-10-16T00:58:32.002Z,0.00
2022-10-16T00:59:32.026Z,0.00
2022-10-16T01:00:31.981Z,0.00
2022-10-16T01:01:32.042Z,0.00
2022-10-16T01:02:31.961Z,0.00
2022-10-16T01:03:31.981Z,0.00
2022-10-16T01:04:31.939Z,0.00
2022-10-16T01:05:31.957Z,0.00
2022-10-16T01:06:31.925Z,0.00
2022-10-16T01:07:31.907Z,0.00
2022-10-16T01:08:31.892Z,0.00
2022-10-16T01:09:31.883Z,0.00
2022-10-16T01:10:31.884Z,0.00
2022-10-16T01:11:31.876Z,0.00
2022-10-16T01:12:31.846Z,0.00
2022-10-16T01:13:31.843Z,0.00
2022-10-16T01:14:31.839Z,0.00
2022-10-16T01:15:31.879Z,0.00
2022-10-16T01:16:31.814Z,0.00
2022-10-16T01:17:31.800Z,0.00
2022-10-16T01:18:31.795Z,0.00
2022-10-16T01:19:31.800Z,0.00
2022-10-16T01:20:31.771Z,0.00
2022-10-16T01:21:31.755Z,0.00
2022-10-16T01:22:31.745Z,0.00
2022-10-16T01:23:31.738Z,0.00
2022-10-16T01:24:31.731Z,0.00
2022-10-16T01:25:31.700Z,0.00
2022-10-16T01:26:31.691Z,0.00
2022-10-16T01:27:31.697Z,0.00
2022-10-16T01:28:31.782Z,0.00
2022-10-16T01:29:31.697Z,0.00
2022-10-16T01:30:31.656Z,0.00
2022-10-16T01:31:31.643Z,0.00
2022-10-16T01:32:31.649Z,0.00
2022-10-16T01:33:31.621Z,0.00
2022-10-16T01:34:31.599Z,0.00
2022-10-16T01:35:31.624Z,0.00
2022-10-16T01:36:31.582Z,0.00
2022-10-16T01:37:31.575Z,0.00
2022-10-16T01:38:31.569Z,0.00
2022-10-16T01:39:31.563Z,0.00
2022-10-16T01:40:31.538Z,0.00
2022-10-16T01:41:31.532Z,0.00
2022-10-16T01:42:31.521Z,0.00
2022-10-16T01:43:31.511Z,0.00
2022-10-16T01:44:31.494Z,0.00
2022-10-16T01:45:31.486Z,0.00
2022-10-16T01:46:31.465Z,0.00
2022-10-16T01:47:31.464Z,0.00
2022-10-16T01:48:31.449Z,0.00
2022-10-16T01:49:31.439Z,0.00
2022-10-16T01:50:31.419Z,0.00
2022-10-16T01:51:31.439Z,0.00
2022-10-16T01:52:31.405Z,0.00
2022-10-16T01:53:31.388Z,0.00
2022-10-16T01:54:31.409Z,0.00
2022-10-16T01:55:31.372Z,0.00
2022-10-16T01:56:31.364Z,0.00
2022-10-16T01:57:31.349Z,0.00
2022-10-16T01:58:31.335Z,0.00
2022-10-16T01:59:31.328Z,0.00
2022-10-16T02:00:31.307Z,0.00
2022-10-16T02:01:31.319Z,0.00
2022-10-16T02:02:31.298Z,0.00
2022-10-16T02:03:31.273Z,0.00
2022-10-16T02:04:31.263Z,0.00
2022-10-16T02:05:31.254Z,0.00
2022-10-16T02:06:31.246Z,0.00
2022-10-16T02:07:31.257Z,0.00
2022-10-16T02:08:31.221Z,0.00
2022-10-16T02:09:31.217Z,0.00
2022-10-16T02:10:31.214Z,0.00
2022-10-16T02:11:31.184Z,0.00
2022-10-16T02:12:31.188Z,0.00
2022-10-16T02:13:31.164Z,0.00
2022-10-16T02:14:31.149Z,0.00
2022-10-16T02:15:31.156Z,0.00
2022-10-16T02:16:31.133Z,0.00
2022-10-16T02:17:31.129Z,0.00
2022-10-16T02:18:31.108Z,0.00
2022-10-16T02:19:31.122Z,0.00
2022-10-16T02:20:31.085Z,0.00
2022-10-16T02:21:31.101Z,0.00
2022-10-16T02:22:31.065Z,0.00
2022-10-16T02:23:31.077Z,0.00
2022-10-16T02:24:31.045Z,0.00
2022-10-16T02:25:31.038Z,0.00
2022-10-16T02:26:31.030Z,0.00
2022-10-16T02:27:31.016Z,0.00
2022-10-16T02:28:31.216Z,0.00
2022-10-16T02:29:31.002Z,0.00
2022-10-16T02:30:30.972Z,0.00
2022-10-16T02:31:30.960Z,0.00
2022-10-16T02:32:30.959Z,0.00
2022-10-16T02:33:30.949Z,0.00
2022-10-16T02:34:30.939Z,0.00
2022-10-16T02:35:30.915Z,0.00
2022-10-16T02:36:30.909Z,0.00
2022-10-16T02:37:30.905Z,0.00
2022-10-16T02:38:30.886Z,0.00
2022-10-16T02:39:30.897Z,0.00
2022-10-16T02:40:30.875Z,0.00
2022-10-16T02:41:30.852Z,0.00
2022-10-16T02:42:30.846Z,0.00
2022-10-16T02:43:30.836Z,0.00
2022-10-16T02:44:30.811Z,0.00
2022-10-16T02:45:30.814Z,0.00
2022-10-16T02:46:30.810Z,0.00
2022-10-16T02:47:30.786Z,0.00
2022-10-16T02:48:30.765Z,0.00
2022-10-16T02:49:30.763Z,0.00
2022-10-16T02:50:30.751Z,0.00
2022-10-16T02:51:30.747Z,0.00
2022-10-16T02:52:30.727Z,0.00
2022-10-16T02:53:30.709Z,0.00
2022-10-16T02:54:30.771Z,0.00
2022-10-16T02:55:30.715Z,0.00
2022-10-16T02:56:30.693Z,0.00
2022-10-16T02:57:30.670Z,0.00
2022-10-16T02:58:30.698Z,0.00
2022-10-16T02:59:30.649Z,0.00
2022-10-16T03:00:30.639Z,0.00
2022-10-16T03:01:30.682Z,0.00
2022-10-16T03:02:30.619Z,0.00
2022-10-16T03:03:30.623Z,0.00
2022-10-16T03:04:30.593Z,0.00
2022-10-16T03:05:30.577Z,0.00
2022-10-16T03:06:30.579Z,0.00
2022-10-16T03:07:30.561Z,0.00
2022-10-16T03:08:30.575Z,0.00
2022-10-16T03:09:30.529Z,0.00
2022-10-16T03:10:30.530Z,0.00
2022-10-16T03:11:30.548Z,0.00
2022-10-16T03:12:30.503Z,0.00
2022-10-16T03:13:30.506Z,0.00
2022-10-16T03:14:30.484Z,0.00
2022-10-16T03:15:30.475Z,0.00
2022-10-16T03:16:30.470Z,0.00
2022-10-16T03:17:30.446Z,0.00
2022-10-16T03:18:30.431Z,0.00
2022-10-16T03:19:30.441Z,0.00
2022-10-16T03:20:30.412Z,0.00
2022-10-16T03:21:30.402Z,0.00
2022-10-16T03:22:30.383Z,0.00
2022-10-16T03:24:30.387Z,0.00
2022-10-16T03:25:30.363Z,0.00
2022-10-16T03:26:30.346Z,0.00
2022-10-16T03:27:30.349Z,0.00
2022-10-16T03:28:30.357Z,0.00
2022-10-16T03:29:30.320Z,0.00
2022-10-16T03:30:30.317Z,0.00
2022-10-16T03:31:30.285Z,0.00
2022-10-16T03:32:30.357Z,0.00
2022-10-16T03:33:30.268Z,0.00
2022-10-16T03:34:30.254Z,0.00
2022-10-16T03:35:30.265Z,0.00
2022-10-16T03:36:30.240Z,0.00
2022-10-16T03:37:30.223Z,0.00
2022-10-16T03:38:30.207Z,0.00
2022-10-16T03:39:30.219Z,0.00
2022-10-16T03:40:30.194Z,0.00
2022-10-16T03:41:30.175Z,0.00
2022-10-16T03:42:30.173Z,0.00
2022-10-16T03:43:30.175Z,0.00
2022-10-16T03:44:30.141Z,0.00
2022-10-16T03:45:30.137Z,0.00
2022-10-16T03:46:30.124Z,0.00
2022-10-16T03:47:30.115Z,0.00
2022-10-16T03:48:30.118Z,0.00
2022-10-16T03:49:30.090Z,0.00
2022-10-16T03:50:30.075Z,0.00
2022-10-16T03:51:30.059Z,0.00
2022-10-16T03:52:30.069Z,0.00
2022-10-16T03:53:30.050Z,0.00
2022-10-16T03:54:30.023Z,0.00
2022-10-16T03:55:30.023Z,0.00
2022-10-16T03:56:30.012Z,0.00
2022-10-16T03:57:30.286Z,0.00
2022-10-16T03:58:29.988Z,0.00
2022-10-16T03:59:30.001Z,0.00
2022-10-16T04:00:29.963Z,0.00
2022-10-16T04:01:29.950Z,0.00
2022-10-16T04:02:29.945Z,0.00
2022-10-16T04:03:29.953Z,0.00
2022-10-16T04:04:29.929Z,0.00
2022-10-16T04:05:29.918Z,0.00
2022-10-16T04:06:29.887Z,0.00
2022-10-16T04:07:29.889Z,0.00
2022-10-16T04:08:29.880Z,0.00
2022-10-16T04:09:29.869Z,0.00
2022-10-16T04:10:29.845Z,0.00
2022-10-16T04:11:29.850Z,0.00
2022-10-16T04:12:29.827Z,0.00
2022-10-16T04:13:29.823Z,0.00
2022-10-16T04:14:29.809Z,0.00
2022-10-16T04:15:29.817Z,0.00
2022-10-16T04:16:29.785Z,0.00
2022-10-16T04:17:29.885Z,0.00
2022-10-16T04:18:29.767Z,0.00
2022-10-16T04:19:29.752Z,0.00
2022-10-16T04:20:29.739Z,0.00
2022-10-16T04:21:29.734Z,0.00
2022-10-16T04:22:29.717Z,0.00
2022-10-16T04:23:29.707Z,0.00
2022-10-16T04:24:29.700Z,0.00
2022-10-16T04:25:29.685Z,0.00
2022-10-16T04:26:29.703Z,0.00
2022-10-16T04:27:29.955Z,0.00
2022-10-16T04:28:29.692Z,0.00
2022-10-16T04:29:29.644Z,0.00
2022-10-16T04:30:29.624Z,0.00
2022-10-16T04:31:29.638Z,0.00
2022-10-16T04:32:29.606Z,0.00
2022-10-16T04:33:29.595Z,0.00
2022-10-16T04:34:29.587Z,0.00
2022-10-16T04:35:29.577Z,0.00
2022-10-16T04:36:29.560Z,0.00
2022-10-16T04:37:29.721Z,0.00
2022-10-16T04:38:29.545Z,0.00
2022-10-16T04:39:29.528Z,0.00
2022-10-16T04:40:29.519Z,0.00
2022-10-16T04:41:29.512Z,0.00
2022-10-16T04:42:29.502Z,0.00
2022-10-16T04:44:29.470Z,0.00
2022-10-16T04:45:29.462Z,0.00
2022-10-16T04:46:29.449Z,0.00
2022-10-16T04:47:29.648Z,0.00
2022-10-16T04:48:29.422Z,0.00
2022-10-16T04:49:29.419Z,0.00
2022-10-16T04:50:29.401Z,0.00
2022-10-16T04:51:29.384Z,0.00
2022-10-16T04:52:29.424Z,0.00
2022-10-16T04:53:29.372Z,0.00
2022-10-16T04:54:29.375Z,0.00
2022-10-16T04:55:29.351Z,0.00
2022-10-16T04:56:29.348Z,0.00
2022-10-16T04:57:29.442Z,0.00
2022-10-16T04:58:29.305Z,0.00
2022-10-16T04:59:29.308Z,0.00
2022-10-16T05:00:29.305Z,0.00
2022-10-16T05:01:29.297Z,0.00
2022-10-16T05:02:29.357Z,0.00
2022-10-16T05:04:29.249Z,0.00
2022-10-16T05:05:29.251Z,0.00
2022-10-16T05:06:29.239Z,0.00
2022-10-16T05:07:29.465Z,0.00
2022-10-16T05:08:29.199Z,0.00
2022-10-16T05:09:29.219Z,0.00
2022-10-16T05:10:29.199Z,0.00
2022-10-16T05:11:29.181Z,0.00
2022-10-16T05:12:29.169Z,0.00
2022-10-16T05:13:29.145Z,0.00
2022-10-16T05:14:29.132Z,0.00
2022-10-16T05:15:29.122Z,0.00
2022-10-16T05:16:29.104Z,0.00
2022-10-16T05:17:29.419Z,0.00
2022-10-16T05:18:29.101Z,0.00
2022-10-16T05:19:29.360Z,0.00
2022-10-16T05:20:29.061Z,0.00
2022-10-16T05:21:29.059Z,0.00
2022-10-16T05:22:29.041Z,0.00
2022-10-16T05:23:29.029Z,0.00
2022-10-16T05:24:29.034Z,0.00
2022-10-16T05:25:29.013Z,0.00
2022-10-16T05:26:29.008Z,0.00
2022-10-16T05:27:29.238Z,0.00
2022-10-16T05:28:29.046Z,0.00
2022-10-16T05:29:28.965Z,0.00
2022-10-16T05:30:28.948Z,4.00
2022-10-16T05:31:28.937Z,4.00
2022-10-16T05:32:28.947Z,0.00
2022-10-16T05:33:28.930Z,4.00
2022-10-16T05:34:28.916Z,4.00
2022-10-16T05:35:28.923Z,4.00
2022-10-16T05:36:28.890Z,8.00
2022-10-16T05:37:29.274Z,8.00
2022-10-16T05:38:28.860Z,12.00
2022-10-16T05:39:28.857Z,12.00
2022-10-16T05:40:28.852Z,12.00
2022-10-16T05:41:28.834Z,16.00
2022-10-16T05:42:28.827Z,16.00
2022-10-16T05:43:28.824Z,16.00
2022-10-16T05:44:28.853Z,20.00
2022-10-16T05:45:28.783Z,24.00
2022-10-16T05:46:28.781Z,28.00
2022-10-16T05:47:29.148Z,28.00
2022-10-16T05:48:28.752Z,32.00
2022-10-16T05:49:28.735Z,36.00
2022-10-16T05:50:28.749Z,44.00
2022-10-16T05:51:28.740Z,48.00
2022-10-16T05:52:28.710Z,56.00
2022-10-16T05:53:28.699Z,64.00
2022-10-16T05:54:28.687Z,76.00
2022-10-16T05:55:28.670Z,88.00
2022-10-16T05:56:28.686Z,104.00
2022-10-16T05:57:29.052Z,116.00
2022-10-16T05:58:28.634Z,124.00
2022-10-16T05:59:28.632Z,128.00
2022-10-16T06:00:28.703Z,140.00
2022-10-16T06:01:28.667Z,152.00
2022-10-16T06:02:28.600Z,176.00
2022-10-16T06:03:28.593Z,204.00
2022-10-16T06:04:28.567Z,240.00
2022-10-16T06:05:28.556Z,280.00
2022-10-16T06:06:28.554Z,320.00
2022-10-16T06:07:28.962Z,360.00
2022-10-16T06:08:28.528Z,388.00
2022-10-16T06:09:28.510Z,396.00
2022-10-16T06:10:28.559Z,396.00
2022-10-16T06:11:28.490Z,392.00
2022-10-16T06:12:28.483Z,396.00
2022-10-16T06:13:28.482Z,416.00
2022-10-16T06:14:28.469Z,444.00
2022-10-16T06:15:28.460Z,480.00
2022-10-16T06:16:28.467Z,512.00
2022-10-16T06:17:28.763Z,532.00
2022-10-16T06:18:28.412Z,532.00
2022-10-16T06:19:28.400Z,520.00
2022-10-16T06:20:28.429Z,516.00
2022-10-16T06:21:28.405Z,512.00
2022-10-16T06:22:28.372Z,504.00
2022-10-16T06:23:28.391Z,512.00
2022-10-16T06:24:28.350Z,532.00
2022-10-16T06:25:28.337Z,568.00
2022-10-16T06:26:28.351Z,612.00
2022-10-16T06:27:28.564Z,664.00
2022-10-16T06:28:28.389Z,728.00
2022-10-16T06:29:28.301Z,812.00
2022-10-16T06:30:28.317Z,900.00
2022-10-16T06:31:28.292Z,976.00
2022-10-16T06:32:28.267Z,1032.00
2022-10-16T06:33:28.245Z,1084.00
2022-10-16T06:34:28.246Z,1128.00
2022-10-16T06:35:28.238Z,1168.00
2022-10-16T06:36:28.231Z,1212.00
2022-10-16T06:37:28.517Z,1244.00
2022-10-16T06:38:28.195Z,1268.00
2022-10-16T06:39:28.221Z,1308.00
2022-10-16T06:40:28.186Z,1356.00
2022-10-16T06:41:28.159Z,1404.00
2022-10-16T06:42:28.513Z,1448.00
2022-10-16T06:43:28.140Z,1504.00
2022-10-16T06:44:28.139Z,1588.00
2022-10-16T06:45:28.120Z,1716.00
2022-10-16T06:46:28.117Z,1880.00
2022-10-16T06:47:28.112Z,2056.00
2022-10-16T06:48:28.091Z,2220.00
2022-10-16T06:49:28.064Z,2344.00
2022-10-16T06:50:28.063Z,2400.00
2022-10-16T06:51:28.054Z,2420.00
2022-10-16T06:52:28.487Z,2444.00
2022-10-16T06:53:28.042Z,2500.00
2022-10-16T06:54:28.018Z,2564.00
2022-10-16T06:55:28.029Z,2632.00
2022-10-16T06:56:27.997Z,2676.00
2022-10-16T06:57:27.988Z,2696.00
2022-10-16T06:58:27.974Z,2728.00
2022-10-16T06:59:27.976Z,2808.00
2022-10-16T07:00:27.943Z,2904.00
2022-10-16T07:01:27.944Z,2988.00
2022-10-16T07:02:28.201Z,3040.00
2022-10-16T07:03:27.918Z,3068.00
2022-10-16T07:04:27.910Z,3092.00
2022-10-16T07:05:27.892Z,3096.00
2022-10-16T07:06:27.887Z,3056.00
2022-10-16T07:07:27.881Z,2992.00
2022-10-16T07:08:27.855Z,2904.00
2022-10-16T07:09:27.908Z,2832.00
2022-10-16T07:10:27.844Z,2808.00
2022-10-16T07:11:27.852Z,2868.00
2022-10-16T07:12:28.175Z,3000.00
2022-10-16T07:13:27.804Z,3184.00
2022-10-16T07:14:27.794Z,3384.00
2022-10-16T07:15:27.793Z,3564.00
2022-10-16T07:16:27.769Z,3688.00
2022-10-16T07:17:27.755Z,3756.00
2022-10-16T07:18:27.823Z,3804.00
2022-10-16T07:19:31.880Z,3860.00
2022-10-16T07:20:28.728Z,3912.00
2022-10-16T07:21:27.721Z,3936.00
2022-10-16T07:22:28.033Z,3964.00
2022-10-16T07:23:27.688Z,3996.00
2022-10-16T07:24:27.685Z,4036.00
2022-10-16T07:25:27.680Z,4080.00
2022-10-16T07:26:27.678Z,4092.00
2022-10-16T07:27:27.745Z,4072.00
2022-10-16T07:28:27.665Z,4084.00
2022-10-16T07:29:27.633Z,4128.00
2022-10-16T07:30:27.609Z,4188.00
2022-10-16T07:31:27.600Z,4212.00
2022-10-16T07:32:28.037Z,4160.00
2022-10-16T07:33:27.600Z,4204.00
2022-10-16T07:34:27.570Z,4160.00
2022-10-16T07:35:27.556Z,3956.00
2022-10-16T07:36:27.549Z,3908.00
2022-10-16T07:37:27.968Z,3864.00
2022-10-16T07:38:27.531Z,3820.00
2022-10-16T07:39:27.545Z,3808.00
2022-10-16T07:40:27.500Z,3816.00
2022-10-16T07:41:27.494Z,3836.00
2022-10-16T07:42:27.476Z,3820.00
2022-10-16T07:43:27.489Z,3816.00
2022-10-16T07:44:27.463Z,3788.00
2022-10-16T07:45:27.466Z,3748.00
2022-10-16T07:46:27.456Z,3768.00
2022-10-16T07:47:27.798Z,3888.00
2022-10-16T07:48:27.411Z,3840.00
2022-10-16T07:49:27.405Z,3944.00
2022-10-16T07:50:27.399Z,4040.00
2022-10-16T07:51:27.383Z,3996.00
2022-10-16T07:52:27.384Z,3984.00
2022-10-16T07:53:27.361Z,4172.00
2022-10-16T07:54:27.365Z,4100.00
2022-10-16T07:55:27.338Z,4180.00
2022-10-16T07:56:27.348Z,4232.00
2022-10-16T07:57:27.731Z,4260.00
2022-10-16T07:58:27.309Z,4240.00
2022-10-16T07:59:27.316Z,4160.00
2022-10-16T08:00:27.280Z,3968.00
2022-10-16T08:01:27.344Z,3832.00
2022-10-16T08:02:27.265Z,3740.00
2022-10-16T08:03:27.245Z,3692.00
2022-10-16T08:04:27.240Z,3640.00
2022-10-16T08:05:27.224Z,3584.00
2022-10-16T08:06:27.909Z,3528.00
2022-10-16T08:07:27.675Z,3448.00
2022-10-16T08:08:27.188Z,3404.00
2022-10-16T08:09:27.177Z,3388.00
2022-10-16T08:10:27.182Z,3408.00
2022-10-16T08:11:27.164Z,3464.00
2022-10-16T08:12:27.148Z,3556.00
2022-10-16T08:13:27.147Z,3688.00
2022-10-16T08:14:27.141Z,3688.00
2022-10-16T08:15:27.136Z,3736.00
2022-10-16T08:16:27.110Z,3804.00
2022-10-16T08:17:27.538Z,3888.00
2022-10-16T08:18:27.084Z,3876.00
2022-10-16T08:19:27.088Z,3800.00
2022-10-16T08:20:27.058Z,3784.00
2022-10-16T08:21:27.050Z,3816.00
2022-10-16T08:22:27.044Z,3920.00
2022-10-16T08:23:27.263Z,4048.00
2022-10-16T08:24:27.015Z,4132.00
2022-10-16T08:25:27.025Z,4204.00
2022-10-16T08:26:26.995Z,4276.00
2022-10-16T08:27:27.261Z,4440.00
2022-10-16T08:28:27.000Z,4540.00
2022-10-16T08:29:26.987Z,4652.00
2022-10-16T08:30:26.946Z,4732.00
2022-10-16T08:31:27.063Z,4892.00
2022-10-16T08:32:27.743Z,5036.00
2022-10-16T08:33:26.915Z,4996.00
2022-10-16T08:34:26.921Z,4892.00
2022-10-16T08:35:26.896Z,4756.00
2022-10-16T08:36:26.921Z,4856.00
2022-10-16T08:37:26.873Z,4976.00
2022-10-16T08:38:26.858Z,4968.00
2022-10-16T08:39:26.851Z,5032.00
2022-10-16T08:40:26.851Z,5264.00
2022-10-16T08:41:26.826Z,5544.00
2022-10-16T08:42:27.255Z,5824.00
2022-10-16T08:43:26.832Z,6048.00
2022-10-16T08:44:26.804Z,6236.00
2022-10-16T08:45:26.791Z,6356.00
2022-10-16T08:46:26.768Z,6352.00
2022-10-16T08:47:26.787Z,6332.00
2022-10-16T08:48:26.759Z,6356.00
2022-10-16T08:49:26.751Z,6452.00
2022-10-16T08:50:26.725Z,6576.00
2022-10-16T08:51:26.715Z,6716.00
2022-10-16T08:52:27.065Z,6936.00
2022-10-16T08:53:26.705Z,7168.00
2022-10-16T08:54:26.687Z,7248.00
2022-10-16T08:55:26.673Z,7284.00
2022-10-16T08:56:26.679Z,7280.00
2022-10-16T08:57:26.644Z,7244.00
2022-10-16T08:58:26.641Z,7248.00
2022-10-16T08:59:26.636Z,7352.00
2022-10-16T09:00:26.654Z,7452.00
2022-10-16T09:01:26.705Z,7468.00
2022-10-16T09:02:26.914Z,7416.00
2022-10-16T09:03:26.609Z,7380.00
2022-10-16T09:04:26.589Z,7448.00
2022-10-16T09:05:26.564Z,7548.00
2022-10-16T09:06:26.553Z,7656.00
2022-10-16T09:07:26.538Z,7620.00
2022-10-16T09:08:26.534Z,7480.00
2022-10-16T09:09:26.528Z,7412.00
2022-10-16T09:10:26.519Z,7308.00
2022-10-16T09:11:26.500Z,7288.00
2022-10-16T09:12:26.775Z,7236.00
2022-10-16T09:13:26.474Z,7032.00
2022-10-16T09:14:26.464Z,6916.00
2022-10-16T09:15:26.458Z,6884.00
2022-10-16T09:16:26.433Z,6828.00
2022-10-16T09:17:26.765Z,6872.00
2022-10-16T09:18:30.011Z,6564.00
2022-10-16T09:19:27.444Z,6136.00
2022-10-16T09:20:26.400Z,5964.00
2022-10-16T09:21:26.391Z,5704.00
2022-10-16T09:22:26.367Z,5480.00
2022-10-16T09:23:26.355Z,5368.00
2022-10-16T09:24:27.111Z,5296.00
2022-10-16T09:25:26.343Z,5296.00
2022-10-16T09:26:26.325Z,5252.00
2022-10-16T09:27:26.610Z,5152.00
2022-10-16T09:28:26.350Z,5092.00
2022-10-16T09:29:26.479Z,5216.00
2022-10-16T09:30:26.308Z,4952.00
2022-10-16T09:31:26.293Z,4892.00
2022-10-16T09:32:26.263Z,4824.00
2022-10-16T09:33:26.249Z,4852.00
2022-10-16T09:34:26.247Z,5040.00
2022-10-16T09:35:26.315Z,5280.00
2022-10-16T09:36:26.215Z,4984.00
2022-10-16T09:37:26.494Z,4756.00
2022-10-16T09:38:26.206Z,4636.00
2022-10-16T09:39:26.190Z,4640.00
2022-10-16T09:40:26.175Z,4568.00
2022-10-16T09:41:26.166Z,4576.00
2022-10-16T09:42:26.167Z,4612.00
2022-10-16T09:43:26.160Z,4696.00
2022-10-16T09:44:26.126Z,4780.00
2022-10-16T09:45:26.115Z,5000.00
2022-10-16T09:46:26.109Z,5200.00
2022-10-16T09:47:26.507Z,4992.00
2022-10-16T09:48:26.083Z,5296.00
2022-10-16T09:49:26.078Z,5316.00
2022-10-16T09:50:26.059Z,5332.00
2022-10-16T09:51:26.087Z,4800.00
2022-10-16T09:52:26.036Z,5028.00
2022-10-16T09:53:26.034Z,5236.00
2022-10-16T09:54:26.014Z,5380.00
2022-10-16T09:55:26.012Z,5592.00
2022-10-16T09:56:25.999Z,5164.00
2022-10-16T09:57:26.366Z,5408.00
2022-10-16T09:58:25.976Z,4988.00
2022-10-16T09:59:25.963Z,4872.00
2022-10-16T10:00:25.971Z,4920.00
2022-10-16T10:01:25.947Z,4848.00
2022-10-16T10:02:25.925Z,5404.00
2022-10-16T10:03:25.918Z,5272.00
2022-10-16T10:04:25.911Z,5344.00
2022-10-16T10:05:25.891Z,5536.00
2022-10-16T10:06:25.889Z,5588.00
2022-10-16T10:07:26.272Z,5668.00
2022-10-16T10:08:25.887Z,5724.00
2022-10-16T10:09:25.851Z,5800.00
2022-10-16T10:10:25.834Z,5884.00
2022-10-16T10:11:25.824Z,5996.00
2022-10-16T10:12:27.108Z,6092.00
2022-10-16T10:13:25.808Z,6176.00
2022-10-16T10:14:25.823Z,6208.00
2022-10-16T10:15:25.782Z,6232.00
2022-10-16T10:16:25.780Z,6200.00
2022-10-16T10:17:25.767Z,5328.00
2022-10-16T10:18:25.746Z,5576.00
2022-10-16T10:19:28.209Z,5724.00
2022-10-16T10:20:26.735Z,6104.00
2022-10-16T10:21:25.725Z,6120.00
2022-10-16T10:22:26.072Z,6176.00
2022-10-16T10:23:25.726Z,6232.00
2022-10-16T10:24:25.696Z,6392.00
2022-10-16T10:25:25.666Z,6508.00
2022-10-16T10:26:25.662Z,6760.00
2022-10-16T10:27:25.657Z,6940.00
2022-10-16T10:28:25.671Z,7120.00
2022-10-16T10:29:25.639Z,7328.00
2022-10-16T10:30:25.626Z,7596.00
2022-10-16T10:31:25.609Z,7784.00
2022-10-16T10:32:25.924Z,7864.00
2022-10-16T10:33:25.583Z,7840.00
2022-10-16T10:34:25.580Z,7796.00
2022-10-16T10:35:25.576Z,7744.00
2022-10-16T10:36:25.555Z,7656.00
2022-10-16T10:37:25.543Z,7520.00
2022-10-16T10:38:25.535Z,7512.00
2022-10-16T10:39:25.551Z,7540.00
2022-10-16T10:40:25.507Z,7516.00
2022-10-16T10:41:27.874Z,7376.00
2022-10-16T10:42:26.771Z,7156.00
2022-10-16T10:43:25.476Z,6948.00
2022-10-16T10:44:25.466Z,6776.00
2022-10-16T10:45:25.471Z,6604.00
2022-10-16T10:46:25.447Z,6524.00
2022-10-16T10:47:25.426Z,6440.00
2022-10-16T10:48:25.485Z,6356.00
2022-10-16T10:49:25.440Z,6324.00
2022-10-16T10:50:25.427Z,6320.00
2022-10-16T10:51:25.409Z,6320.00
2022-10-16T10:52:25.704Z,6312.00
2022-10-16T10:53:25.371Z,6356.00
2022-10-16T10:54:25.352Z,6372.00
2022-10-16T10:55:25.386Z,6328.00
2022-10-16T10:56:25.334Z,6328.00
2022-10-16T10:57:25.345Z,6304.00
2022-10-16T10:58:25.318Z,6364.00
2022-10-16T10:59:25.315Z,6352.00
2022-10-16T11:00:25.292Z,6400.00
2022-10-16T11:01:25.349Z,6460.00
2022-10-16T11:02:25.646Z,6540.00
2022-10-16T11:03:25.254Z,6608.00
2022-10-16T11:04:25.250Z,6632.00
2022-10-16T11:05:25.274Z,6716.00
2022-10-16T11:06:25.226Z,6944.00
2022-10-16T11:07:25.658Z,6212.00
2022-10-16T11:08:25.203Z,6068.00
2022-10-16T11:09:25.208Z,6368.00
2022-10-16T11:10:25.192Z,6304.00
2022-10-16T11:11:25.189Z,6528.00
2022-10-16T11:12:25.160Z,6920.00
2022-10-16T11:13:25.152Z,8296.00
2022-10-16T11:14:25.133Z,8532.00
2022-10-16T11:15:25.128Z,8892.00
2022-10-16T11:16:25.115Z,9084.00
2022-10-16T11:17:25.374Z,9408.00
2022-10-16T11:18:25.100Z,8844.00
2022-10-16T11:19:25.092Z,7876.00
2022-10-16T11:20:25.071Z,8988.00
2022-10-16T11:21:28.806Z,9544.00
2022-10-16T11:22:26.049Z,9056.00
2022-10-16T11:23:25.033Z,8500.00
2022-10-16T11:24:25.033Z,8324.00
2022-10-16T11:25:25.033Z,8456.00
2022-10-16T11:26:25.011Z,8456.00
2022-10-16T11:27:25.340Z,8460.00
2022-10-16T11:28:27.923Z,8404.00
2022-10-16T11:29:25.966Z,8588.00
2022-10-16T11:30:24.955Z,8400.00
2022-10-16T11:31:24.960Z,8304.00
2022-10-16T11:32:24.991Z,7872.00
2022-10-16T11:33:24.935Z,7512.00
2022-10-16T11:34:24.930Z,8352.00
2022-10-16T11:35:24.924Z,10016.00
2022-10-16T11:36:24.918Z,10768.00
2022-10-16T11:37:25.277Z,10952.00
2022-10-16T11:38:24.890Z,10840.00
2022-10-16T11:39:24.864Z,10744.00
2022-10-16T11:40:24.852Z,10752.00
2022-10-16T11:41:24.875Z,10920.00
2022-10-16T11:42:24.827Z,10808.00
2022-10-16T11:43:24.848Z,10464.00
2022-10-16T11:44:24.827Z,11332.00
2022-10-16T11:45:24.816Z,10384.00
2022-10-16T11:46:24.801Z,10468.00
2022-10-16T11:47:46.510Z,8852.00
2022-10-16T11:48:25.760Z,8252.00
2022-10-16T11:49:24.761Z,8072.00
2022-10-16T11:50:24.755Z,7984.00
2022-10-16T11:51:24.734Z,8012.00
2022-10-16T11:52:24.736Z,8160.00
2022-10-16T11:53:24.714Z,8420.00
2022-10-16T11:54:24.699Z,8636.00
2022-10-16T11:55:24.692Z,8680.00
2022-10-16T11:56:24.685Z,8608.00
2022-10-16T11:57:25.150Z,8512.00
2022-10-16T11:58:24.710Z,8372.00
2022-10-16T11:59:24.658Z,8408.00
2022-10-16T12:00:24.629Z,8456.00
2022-10-16T12:02:24.954Z,8288.00
2022-10-16T12:03:24.635Z,8064.00
2022-10-16T12:04:24.591Z,7784.00
2022-10-16T12:05:24.588Z,7440.00
2022-10-16T12:06:24.570Z,7376.00
2022-10-16T12:07:24.568Z,7664.00
2022-10-16T12:08:24.546Z,8084.00
2022-10-16T12:09:24.561Z,8420.00
2022-10-16T12:10:26.716Z,8392.00
2022-10-16T12:11:24.538Z,8256.00
2022-10-16T12:12:24.791Z,8072.00
2022-10-16T12:13:24.488Z,8140.00
2022-10-16T12:14:24.489Z,8244.00
2022-10-16T12:15:40.463Z,8400.00
2022-10-16T12:16:25.449Z,8764.00
2022-10-16T12:17:24.442Z,9280.00
2022-10-16T12:18:24.427Z,10132.00
2022-10-16T12:19:24.433Z,10340.00
2022-10-16T12:20:24.422Z,10048.00
2022-10-16T12:21:24.400Z,10084.00
2022-10-16T12:22:24.668Z,9772.00
2022-10-16T12:23:24.372Z,9716.00
2022-10-16T12:24:24.375Z,10076.00
2022-10-16T12:25:24.358Z,10572.00
2022-10-16T12:26:24.350Z,10820.00
2022-10-16T12:27:24.349Z,10768.00
2022-10-16T12:28:24.338Z,10528.00
2022-10-16T12:29:24.313Z,10152.00
2022-10-16T12:30:24.297Z,9672.00
2022-10-16T12:31:24.315Z,9272.00
2022-10-16T12:32:48.681Z,9112.00
2022-10-16T12:33:25.301Z,8972.00
2022-10-16T12:34:24.257Z,8772.00
2022-10-16T12:35:24.240Z,8684.00
2022-10-16T12:36:25.005Z,8684.00
2022-10-16T12:37:24.235Z,8768.00
2022-10-16T12:38:24.212Z,9020.00
2022-10-16T12:39:24.204Z,9308.00
2022-10-16T12:40:24.204Z,9384.00
2022-10-16T12:41:24.181Z,9376.00